This is the latest recevied weather packets stored in our database for station/object WC4PEM-7. If no packets are shown the sender has not sent any weather packets the latest 10 day(s).
| Time | Temp. | Humidity | Pressure | Rain* | Wind** | Luminosity | Snow |
|---|---|---|---|---|---|---|---|
| 1777510118 | 25.56° C | 73% | 1012.4 hPa | 0 mm | - | - | - |
| 1777510048 | 25.56° C | 71% | 1012 hPa | 0 mm | - | - | - |
| 1777509838 | 25.56° C | 73% | 1012.4 hPa | 0 mm | - | - | - |
| 1777509538 | 25.56° C | 72% | 1012.3 hPa | 0 mm | - | - | - |
| 1777509238 | 25.56° C | 72% | 1012.2 hPa | 0 mm | - | - | - |
| 1777508938 | 25.56° C | 71% | 1012 hPa | 0 mm | - | - | - |
| 1777508828 | 26.11° C | 70% | 1012.1 hPa | 0 mm | - | - | - |
| 1777508818 | 27.22° C | 67% | 1011.8 hPa | 0 mm | - | - | - |
| 1777508638 | 26.11° C | 70% | 1012.1 hPa | 0 mm | - | - | - |
| 1777508338 | 26.11° C | 70% | 1012 hPa | 0 mm | - | - | - |
| 1777508229 | 26.11° C | 69% | 1011.8 hPa | 0 mm | - | - | - |
| 1777508039 | 26.11° C | 69% | 1011.8 hPa | 0 mm | - | - | - |
| 1777507738 | 26.67° C | 68% | 1011.9 hPa | 0 mm | - | - | - |
| 1777507574 | 26.67° C | 67% | 1011.9 hPa | 0 mm | - | - | - |
| 1777507538 | 26.67° C | 67% | 1011.9 hPa | 0 mm | - | - | - |
| 1777507438 | 26.67° C | 67% | 1011.9 hPa | 0 mm | - | - | - |
| 1777507138 | 26.67° C | 67% | 1012 hPa | 0 mm | - | - | - |
| 1777506839 | 27.22° C | 67% | 1011.8 hPa | 0 mm | - | - | - |
| 1777506539 | 27.22° C | 66% | 1011.6 hPa | 0 mm | - | - | - |
| 1777506238 | 27.22° C | 65% | 1011.7 hPa | 0 mm | - | - | - |
| 1777505939 | 27.78° C | 64% | 1011.7 hPa | 0 mm | - | - | - |
| 1777505639 | 27.78° C | 64% | 1011.7 hPa | 0 mm | - | - | - |
| 1777505339 | 27.78° C | 63% | 1011.7 hPa | 0 mm | - | - | - |
| 1777505089 | 28.33° C | 62% | 1011.7 hPa | 0 mm | - | - | - |
| 1777505039 | 28.33° C | 62% | 1011.7 hPa | 0 mm | - | - | - |
* Rain latest hour (hover to see other rain measurements)
** Current wind speed in m/s (hover to see current wind gust speed)